sensor_id;sensor_type;location;lat;lon;timestamp;P1;durP1;ratioP1;P2;durP2;ratioP2
56043;SDS011;41912;51.022;3.664;2023-02-28T00:00:18;8.18;;;3.83;;
56043;SDS011;41912;51.022;3.664;2023-02-28T00:02:44;7.97;;;3.55;;
56043;SDS011;41912;51.022;3.664;2023-02-28T00:05:12;8.05;;;3.70;;
56043;SDS011;41912;51.022;3.664;2023-02-28T00:07:39;6.30;;;3.17;;
56043;SDS011;41912;51.022;3.664;2023-02-28T00:10:07;10.70;;;3.47;;
56043;SDS011;41912;51.022;3.664;2023-02-28T00:12:37;9.02;;;3.75;;
56043;SDS011;41912;51.022;3.664;2023-02-28T00:15:07;12.50;;;4.00;;
56043;SDS011;41912;51.022;3.664;2023-02-28T00:17:35;9.32;;;3.67;;
56043;SDS011;41912;51.022;3.664;2023-02-28T00:20:01;8.57;;;4.38;;
56043;SDS011;41912;51.022;3.664;2023-02-28T00:22:28;10.77;;;4.50;;
56043;SDS011;41912;51.022;3.664;2023-02-28T00:24:54;6.75;;;4.25;;
56043;SDS011;41912;51.022;3.664;2023-02-28T00:27:19;9.90;;;4.60;;
56043;SDS011;41912;51.022;3.664;2023-02-28T00:29:46;11.70;;;4.70;;
56043;SDS011;41912;51.022;3.664;2023-02-28T00:32:12;16.52;;;4.78;;
56043;SDS011;41912;51.022;3.664;2023-02-28T00:34:37;13.55;;;4.53;;
56043;SDS011;41912;51.022;3.664;2023-02-28T00:37:07;12.02;;;5.20;;
56043;SDS011;41912;51.022;3.664;2023-02-28T00:39:35;9.77;;;5.22;;
56043;SDS011;41912;51.022;3.664;2023-02-28T00:42:02;13.82;;;5.45;;
56043;SDS011;41912;51.022;3.664;2023-02-28T00:44:29;11.55;;;5.35;;
56043;SDS011;41912;51.022;3.664;2023-02-28T00:46:55;13.27;;;5.63;;
56043;SDS011;41912;51.022;3.664;2023-02-28T00:49:22;9.23;;;5.32;;
56043;SDS011;41912;51.022;3.664;2023-02-28T00:51:48;9.52;;;5.47;;
56043;SDS011;41912;51.022;3.664;2023-02-28T00:54:14;10.27;;;5.78;;
56043;SDS011;41912;51.022;3.664;2023-02-28T00:56:41;11.07;;;6.50;;
56043;SDS011;41912;51.022;3.664;2023-02-28T00:59:06;11.43;;;5.95;;
56043;SDS011;41912;51.022;3.664;2023-02-28T01:01:32;15.52;;;6.35;;
56043;SDS011;41912;51.022;3.664;2023-02-28T01:03:57;10.00;;;5.93;;
56043;SDS011;41912;51.022;3.664;2023-02-28T01:06:23;10.32;;;5.72;;
56043;SDS011;41912;51.022;3.664;2023-02-28T01:08:49;14.10;;;5.97;;
56043;SDS011;41912;51.022;3.664;2023-02-28T01:11:15;10.43;;;5.68;;
56043;SDS011;41912;51.022;3.664;2023-02-28T01:13:42;12.55;;;5.82;;
56043;SDS011;41912;51.022;3.664;2023-02-28T01:16:08;10.25;;;6.20;;
56043;SDS011;41912;51.022;3.664;2023-02-28T01:18:34;12.15;;;5.97;;
56043;SDS011;41912;51.022;3.664;2023-02-28T01:21:08;14.60;;;5.55;;
56043;SDS011;41912;51.022;3.664;2023-02-28T01:23:36;10.38;;;5.55;;
56043;SDS011;41912;51.022;3.664;2023-02-28T01:26:08;13.43;;;6.32;;
56043;SDS011;41912;51.022;3.664;2023-02-28T01:28:39;11.07;;;6.18;;
56043;SDS011;41912;51.022;3.664;2023-02-28T01:31:05;9.02;;;5.70;;
56043;SDS011;41912;51.022;3.664;2023-02-28T01:33:31;11.30;;;5.53;;
56043;SDS011;41912;51.022;3.664;2023-02-28T01:35:57;11.70;;;6.40;;
56043;SDS011;41912;51.022;3.664;2023-02-28T01:38:24;10.32;;;6.18;;
56043;SDS011;41912;51.022;3.664;2023-02-28T01:40:51;17.80;;;6.55;;
56043;SDS011;41912;51.022;3.664;2023-02-28T01:43:24;8.85;;;5.22;;
56043;SDS011;41912;51.022;3.664;2023-02-28T01:45:52;12.57;;;5.20;;
56043;SDS011;41912;51.022;3.664;2023-02-28T01:48:20;12.13;;;6.05;;
56043;SDS011;41912;51.022;3.664;2023-02-28T01:50:51;11.20;;;6.80;;
56043;SDS011;41912;51.022;3.664;2023-02-28T01:53:18;12.80;;;5.97;;
56043;SDS011;41912;51.022;3.664;2023-02-28T01:55:49;13.77;;;6.70;;
56043;SDS011;41912;51.022;3.664;2023-02-28T01:58:16;12.10;;;6.40;;
56043;SDS011;41912;51.022;3.664;2023-02-28T02:00:43;11.77;;;6.28;;
56043;SDS011;41912;51.022;3.664;2023-02-28T02:03:09;13.38;;;5.97;;
56043;SDS011;41912;51.022;3.664;2023-02-28T02:05:39;11.27;;;6.18;;
56043;SDS011;41912;51.022;3.664;2023-02-28T02:08:06;14.18;;;6.53;;
56043;SDS011;41912;51.022;3.664;2023-02-28T02:10:44;11.82;;;5.95;;
56043;SDS011;41912;51.022;3.664;2023-02-28T02:30:44;17.17;;;7.47;;
56043;SDS011;41912;51.022;3.664;2023-02-28T02:36:27;14.77;;;6.15;;
56043;SDS011;41912;51.022;3.664;2023-02-28T02:41:36;16.98;;;5.93;;
56043;SDS011;41912;51.022;3.664;2023-02-28T02:44:30;9.65;;;5.97;;
56043;SDS011;41912;51.022;3.664;2023-02-28T02:47:09;14.07;;;6.68;;
56043;SDS011;41912;51.022;3.664;2023-02-28T02:49:39;12.63;;;6.50;;
56043;SDS011;41912;51.022;3.664;2023-02-28T02:52:09;10.48;;;6.60;;
56043;SDS011;41912;51.022;3.664;2023-02-28T02:54:39;14.80;;;6.32;;
56043;SDS011;41912;51.022;3.664;2023-02-28T02:57:09;15.65;;;6.35;;
56043;SDS011;41912;51.022;3.664;2023-02-28T02:59:38;14.75;;;5.93;;
56043;SDS011;41912;51.022;3.664;2023-02-28T03:02:06;12.38;;;6.28;;
56043;SDS011;41912;51.022;3.664;2023-02-28T03:04:40;9.48;;;5.60;;
56043;SDS011;41912;51.022;3.664;2023-02-28T03:07:10;15.00;;;7.95;;
56043;SDS011;41912;51.022;3.664;2023-02-28T03:09:35;12.82;;;6.53;;
56043;SDS011;41912;51.022;3.664;2023-02-28T03:12:01;11.45;;;7.18;;
56043;SDS011;41912;51.022;3.664;2023-02-28T03:25:46;12.27;;;6.03;;
56043;SDS011;41912;51.022;3.664;2023-02-28T03:33:44;10.00;;;5.95;;
56043;SDS011;41912;51.022;3.664;2023-02-28T03:36:35;11.20;;;6.60;;
56043;SDS011;41912;51.022;3.664;2023-02-28T03:39:08;12.93;;;6.68;;
56043;SDS011;41912;51.022;3.664;2023-02-28T03:41:51;11.10;;;5.82;;
56043;SDS011;41912;51.022;3.664;2023-02-28T03:44:22;15.00;;;6.05;;
56043;SDS011;41912;51.022;3.664;2023-02-28T03:47:00;8.85;;;6.13;;
56043;SDS011;41912;51.022;3.664;2023-02-28T03:49:43;13.13;;;6.25;;
56043;SDS011;41912;51.022;3.664;2023-02-28T03:54:43;8.45;;;5.88;;
56043;SDS011;41912;51.022;3.664;2023-02-28T03:59:49;11.35;;;6.88;;
56043;SDS011;41912;51.022;3.664;2023-02-28T04:02:44;13.38;;;6.55;;
56043;SDS011;41912;51.022;3.664;2023-02-28T04:05:10;11.77;;;6.60;;
56043;SDS011;41912;51.022;3.664;2023-02-28T04:07:36;14.52;;;7.15;;
56043;SDS011;41912;51.022;3.664;2023-02-28T04:10:02;15.23;;;6.82;;
56043;SDS011;41912;51.022;3.664;2023-02-28T04:12:29;10.30;;;6.68;;
56043;SDS011;41912;51.022;3.664;2023-02-28T04:14:54;12.88;;;7.15;;
56043;SDS011;41912;51.022;3.664;2023-02-28T04:17:20;16.00;;;7.32;;
56043;SDS011;41912;51.022;3.664;2023-02-28T04:19:46;11.95;;;5.97;;
56043;SDS011;41912;51.022;3.664;2023-02-28T04:22:11;11.75;;;6.72;;
56043;SDS011;41912;51.022;3.664;2023-02-28T04:24:37;11.23;;;6.85;;
56043;SDS011;41912;51.022;3.664;2023-02-28T04:27:06;13.02;;;6.40;;
56043;SDS011;41912;51.022;3.664;2023-02-28T04:29:33;15.82;;;7.45;;
56043;SDS011;41912;51.022;3.664;2023-02-28T04:32:00;13.48;;;7.00;;
56043;SDS011;41912;51.022;3.664;2023-02-28T04:34:26;13.02;;;7.78;;
56043;SDS011;41912;51.022;3.664;2023-02-28T04:36:54;15.27;;;6.78;;
56043;SDS011;41912;51.022;3.664;2023-02-28T04:39:20;13.40;;;7.13;;
56043;SDS011;41912;51.022;3.664;2023-02-28T04:41:47;14.10;;;7.28;;
56043;SDS011;41912;51.022;3.664;2023-02-28T04:44:13;12.00;;;7.60;;
56043;SDS011;41912;51.022;3.664;2023-02-28T04:46:39;13.15;;;7.45;;
56043;SDS011;41912;51.022;3.664;2023-02-28T04:49:09;12.32;;;6.82;;
56043;SDS011;41912;51.022;3.664;2023-02-28T04:51:36;12.75;;;6.78;;
56043;SDS011;41912;51.022;3.664;2023-02-28T04:54:02;14.00;;;7.40;;
56043;SDS011;41912;51.022;3.664;2023-02-28T04:56:27;14.40;;;7.47;;
56043;SDS011;41912;51.022;3.664;2023-02-28T04:58:53;21.02;;;7.55;;
56043;SDS011;41912;51.022;3.664;2023-02-28T05:01:24;14.48;;;7.95;;
56043;SDS011;41912;51.022;3.664;2023-02-28T05:03:55;17.48;;;8.18;;
56043;SDS011;41912;51.022;3.664;2023-02-28T05:06:23;15.15;;;7.15;;
56043;SDS011;41912;51.022;3.664;2023-02-28T05:08:50;12.90;;;7.18;;
56043;SDS011;41912;51.022;3.664;2023-02-28T05:11:18;12.50;;;7.25;;
56043;SDS011;41912;51.022;3.664;2023-02-28T05:13:51;14.10;;;7.43;;
56043;SDS011;41912;51.022;3.664;2023-02-28T05:16:19;15.05;;;7.75;;
56043;SDS011;41912;51.022;3.664;2023-02-28T05:18:45;14.85;;;8.13;;
56043;SDS011;41912;51.022;3.664;2023-02-28T05:21:30;12.18;;;7.38;;
56043;SDS011;41912;51.022;3.664;2023-02-28T05:24:01;16.98;;;7.90;;
56043;SDS011;41912;51.022;3.664;2023-02-28T05:26:28;16.23;;;7.85;;
56043;SDS011;41912;51.022;3.664;2023-02-28T05:28:54;15.85;;;7.47;;
56043;SDS011;41912;51.022;3.664;2023-02-28T05:31:20;12.98;;;7.50;;
56043;SDS011;41912;51.022;3.664;2023-02-28T05:33:47;18.17;;;7.85;;
56043;SDS011;41912;51.022;3.664;2023-02-28T05:36:12;16.02;;;7.65;;
56043;SDS011;41912;51.022;3.664;2023-02-28T05:38:38;14.48;;;7.75;;
56043;SDS011;41912;51.022;3.664;2023-02-28T05:41:05;17.20;;;7.35;;
56043;SDS011;41912;51.022;3.664;2023-02-28T05:43:32;15.85;;;7.38;;
56043;SDS011;41912;51.022;3.664;2023-02-28T05:45:57;11.80;;;7.07;;
56043;SDS011;41912;51.022;3.664;2023-02-28T05:48:23;16.73;;;7.88;;
56043;SDS011;41912;51.022;3.664;2023-02-28T05:50:48;11.00;;;7.30;;
56043;SDS011;41912;51.022;3.664;2023-02-28T05:53:14;13.55;;;7.25;;
56043;SDS011;41912;51.022;3.664;2023-02-28T05:55:40;12.43;;;7.82;;
56043;SDS011;41912;51.022;3.664;2023-02-28T05:58:06;12.90;;;7.70;;
56043;SDS011;41912;51.022;3.664;2023-02-28T06:00:31;18.95;;;7.45;;
56043;SDS011;41912;51.022;3.664;2023-02-28T06:02:57;21.40;;;8.55;;
56043;SDS011;41912;51.022;3.664;2023-02-28T06:05:26;16.45;;;7.53;;
56043;SDS011;41912;51.022;3.664;2023-02-28T06:07:52;16.38;;;7.40;;
56043;SDS011;41912;51.022;3.664;2023-02-28T06:10:18;14.18;;;7.30;;
56043;SDS011;41912;51.022;3.664;2023-02-28T06:12:44;20.13;;;7.40;;
56043;SDS011;41912;51.022;3.664;2023-02-28T06:15:14;17.23;;;6.93;;
56043;SDS011;41912;51.022;3.664;2023-02-28T06:17:41;19.02;;;7.60;;
56043;SDS011;41912;51.022;3.664;2023-02-28T06:20:08;13.93;;;8.15;;
56043;SDS011;41912;51.022;3.664;2023-02-28T06:22:35;16.65;;;7.15;;
56043;SDS011;41912;51.022;3.664;2023-02-28T06:25:02;19.38;;;6.55;;
56043;SDS011;41912;51.022;3.664;2023-02-28T06:27:28;13.52;;;6.70;;
56043;SDS011;41912;51.022;3.664;2023-02-28T06:29:55;14.73;;;6.88;;
56043;SDS011;41912;51.022;3.664;2023-02-28T06:32:21;15.68;;;6.97;;
56043;SDS011;41912;51.022;3.664;2023-02-28T06:34:47;12.48;;;6.75;;
56043;SDS011;41912;51.022;3.664;2023-02-28T06:37:12;14.13;;;6.60;;
56043;SDS011;41912;51.022;3.664;2023-02-28T06:39:38;16.20;;;6.43;;
56043;SDS011;41912;51.022;3.664;2023-02-28T06:42:04;13.13;;;6.93;;
56043;SDS011;41912;51.022;3.664;2023-02-28T06:44:30;16.60;;;7.28;;
56043;SDS011;41912;51.022;3.664;2023-02-28T06:47:02;13.75;;;7.00;;
56043;SDS011;41912;51.022;3.664;2023-02-28T06:49:29;17.85;;;7.72;;
56043;SDS011;41912;51.022;3.664;2023-02-28T06:51:56;14.63;;;7.85;;
56043;SDS011;41912;51.022;3.664;2023-02-28T06:54:21;15.60;;;7.78;;
56043;SDS011;41912;51.022;3.664;2023-02-28T06:56:47;16.70;;;7.25;;
56043;SDS011;41912;51.022;3.664;2023-02-28T06:59:13;18.75;;;8.32;;
56043;SDS011;41912;51.022;3.664;2023-02-28T07:01:39;14.40;;;7.35;;
56043;SDS011;41912;51.022;3.664;2023-02-28T07:04:05;14.50;;;6.78;;
56043;SDS011;41912;51.022;3.664;2023-02-28T07:06:31;11.65;;;7.55;;
56043;SDS011;41912;51.022;3.664;2023-02-28T07:08:57;13.57;;;6.93;;
56043;SDS011;41912;51.022;3.664;2023-02-28T07:11:24;13.50;;;7.05;;
56043;SDS011;41912;51.022;3.664;2023-02-28T07:13:55;24.45;;;7.75;;
56043;SDS011;41912;51.022;3.664;2023-02-28T07:16:21;20.58;;;7.03;;
56043;SDS011;41912;51.022;3.664;2023-02-28T07:18:49;18.30;;;7.50;;
56043;SDS011;41912;51.022;3.664;2023-02-28T07:21:16;15.23;;;6.15;;
56043;SDS011;41912;51.022;3.664;2023-02-28T07:23:42;11.35;;;6.05;;
56043;SDS011;41912;51.022;3.664;2023-02-28T07:26:12;14.10;;;5.75;;
56043;SDS011;41912;51.022;3.664;2023-02-28T07:28:41;15.45;;;6.18;;
56043;SDS011;41912;51.022;3.664;2023-02-28T07:31:07;12.93;;;6.53;;
56043;SDS011;41912;51.022;3.664;2023-02-28T07:33:34;17.27;;;5.68;;
56043;SDS011;41912;51.022;3.664;2023-02-28T07:36:04;10.90;;;6.93;;
56043;SDS011;41912;51.022;3.664;2023-02-28T07:38:48;14.05;;;6.10;;
56043;SDS011;41912;51.022;3.664;2023-02-28T07:41:15;12.63;;;5.53;;
56043;SDS011;41912;51.022;3.664;2023-02-28T07:43:42;12.80;;;5.50;;
56043;SDS011;41912;51.022;3.664;2023-02-28T07:46:10;10.73;;;5.00;;
56043;SDS011;41912;51.022;3.664;2023-02-28T07:48:37;15.18;;;5.65;;
56043;SDS011;41912;51.022;3.664;2023-02-28T07:51:03;8.38;;;4.63;;
56043;SDS011;41912;51.022;3.664;2023-02-28T07:53:29;11.90;;;4.85;;
56043;SDS011;41912;51.022;3.664;2023-02-28T07:55:55;12.48;;;5.32;;
56043;SDS011;41912;51.022;3.664;2023-02-28T07:58:21;12.30;;;5.05;;
56043;SDS011;41912;51.022;3.664;2023-02-28T08:00:47;11.48;;;4.97;;
56043;SDS011;41912;51.022;3.664;2023-02-28T08:03:13;13.70;;;4.95;;
56043;SDS011;41912;51.022;3.664;2023-02-28T08:05:39;9.32;;;4.55;;
56043;SDS011;41912;51.022;3.664;2023-02-28T08:08:05;7.65;;;4.32;;
56043;SDS011;41912;51.022;3.664;2023-02-28T08:10:31;8.23;;;4.82;;
56043;SDS011;41912;51.022;3.664;2023-02-28T08:12:57;9.82;;;4.63;;
56043;SDS011;41912;51.022;3.664;2023-02-28T08:15:23;14.48;;;4.65;;
56043;SDS011;41912;51.022;3.664;2023-02-28T08:17:48;12.88;;;4.43;;
56043;SDS011;41912;51.022;3.664;2023-02-28T08:20:14;11.95;;;4.57;;
56043;SDS011;41912;51.022;3.664;2023-02-28T08:22:39;9.55;;;4.18;;
56043;SDS011;41912;51.022;3.664;2023-02-28T08:25:06;10.60;;;4.47;;
56043;SDS011;41912;51.022;3.664;2023-02-28T08:27:32;8.50;;;4.60;;
56043;SDS011;41912;51.022;3.664;2023-02-28T08:29:58;9.13;;;4.82;;
56043;SDS011;41912;51.022;3.664;2023-02-28T08:32:24;9.18;;;4.82;;
56043;SDS011;41912;51.022;3.664;2023-02-28T08:34:50;9.30;;;4.30;;
56043;SDS011;41912;51.022;3.664;2023-02-28T08:37:16;13.25;;;4.97;;
56043;SDS011;41912;51.022;3.664;2023-02-28T08:39:41;8.57;;;4.22;;
56043;SDS011;41912;51.022;3.664;2023-02-28T08:42:07;10.43;;;4.50;;
56043;SDS011;41912;51.022;3.664;2023-02-28T08:44:33;9.07;;;4.78;;
56043;SDS011;41912;51.022;3.664;2023-02-28T08:46:59;11.15;;;5.03;;
56043;SDS011;41912;51.022;3.664;2023-02-28T08:49:24;8.93;;;4.82;;
56043;SDS011;41912;51.022;3.664;2023-02-28T08:51:50;11.70;;;4.97;;
56043;SDS011;41912;51.022;3.664;2023-02-28T08:54:16;8.05;;;4.28;;
56043;SDS011;41912;51.022;3.664;2023-02-28T08:56:44;9.75;;;4.50;;
56043;SDS011;41912;51.022;3.664;2023-02-28T08:59:12;11.60;;;5.90;;
56043;SDS011;41912;51.022;3.664;2023-02-28T09:01:38;8.68;;;4.53;;
56043;SDS011;41912;51.022;3.664;2023-02-28T09:04:03;9.98;;;4.57;;
56043;SDS011;41912;51.022;3.664;2023-02-28T09:06:31;8.43;;;4.57;;
56043;SDS011;41912;51.022;3.664;2023-02-28T09:08:57;7.63;;;4.70;;
56043;SDS011;41912;51.022;3.664;2023-02-28T09:11:24;8.25;;;4.25;;
56043;SDS011;41912;51.022;3.664;2023-02-28T09:13:50;7.65;;;4.18;;
56043;SDS011;41912;51.022;3.664;2023-02-28T09:16:16;7.00;;;4.20;;
56043;SDS011;41912;51.022;3.664;2023-02-28T09:18:42;11.60;;;4.78;;
56043;SDS011;41912;51.022;3.664;2023-02-28T09:21:08;14.10;;;4.80;;
56043;SDS011;41912;51.022;3.664;2023-02-28T09:23:38;20.42;;;4.68;;
56043;SDS011;41912;51.022;3.664;2023-02-28T09:26:04;12.23;;;4.35;;
56043;SDS011;41912;51.022;3.664;2023-02-28T09:28:30;11.43;;;4.57;;
56043;SDS011;41912;51.022;3.664;2023-02-28T09:30:56;9.15;;;4.72;;
56043;SDS011;41912;51.022;3.664;2023-02-28T09:33:24;8.90;;;4.18;;
56043;SDS011;41912;51.022;3.664;2023-02-28T09:35:50;8.30;;;4.05;;
56043;SDS011;41912;51.022;3.664;2023-02-28T09:38:22;11.27;;;4.72;;
56043;SDS011;41912;51.022;3.664;2023-02-28T09:40:52;6.10;;;3.75;;
56043;SDS011;41912;51.022;3.664;2023-02-28T09:43:22;9.73;;;4.05;;
56043;SDS011;41912;51.022;3.664;2023-02-28T09:45:55;7.95;;;4.05;;
56043;SDS011;41912;51.022;3.664;2023-02-28T09:48:35;10.55;;;4.35;;
56043;SDS011;41912;51.022;3.664;2023-02-28T09:51:08;8.90;;;4.13;;
56043;SDS011;41912;51.022;3.664;2023-02-28T09:53:54;10.57;;;3.53;;
56043;SDS011;41912;51.022;3.664;2023-02-28T10:01:21;8.10;;;3.40;;
56043;SDS011;41912;51.022;3.664;2023-02-28T10:06:29;6.75;;;3.47;;
56043;SDS011;41912;51.022;3.664;2023-02-28T10:09:02;7.80;;;3.40;;
56043;SDS011;41912;51.022;3.664;2023-02-28T10:11:32;6.70;;;3.47;;
56043;SDS011;41912;51.022;3.664;2023-02-28T10:14:02;9.43;;;3.10;;
56043;SDS011;41912;51.022;3.664;2023-02-28T10:16:48;6.07;;;3.38;;
56043;SDS011;41912;51.022;3.664;2023-02-28T10:24:43;8.23;;;4.20;;
56043;SDS011;41912;51.022;3.664;2023-02-28T10:27:16;9.00;;;3.60;;
56043;SDS011;41912;51.022;3.664;2023-02-28T10:29:44;13.05;;;3.80;;
56043;SDS011;41912;51.022;3.664;2023-02-28T10:32:13;6.50;;;3.47;;
56043;SDS011;41912;51.022;3.664;2023-02-28T10:34:44;4.95;;;2.72;;
56043;SDS011;41912;51.022;3.664;2023-02-28T10:37:15;6.35;;;3.55;;
56043;SDS011;41912;51.022;3.664;2023-02-28T10:39:43;10.80;;;4.32;;
56043;SDS011;41912;51.022;3.664;2023-02-28T10:45:10;9.90;;;3.47;;
56043;SDS011;41912;51.022;3.664;2023-02-28T10:47:48;5.57;;;2.72;;
56043;SDS011;41912;51.022;3.664;2023-02-28T10:50:36;6.70;;;2.80;;
56043;SDS011;41912;51.022;3.664;2023-02-28T11:09:41;9.13;;;2.85;;
56043;SDS011;41912;51.022;3.664;2023-02-28T11:14:57;3.83;;;2.28;;
56043;SDS011;41912;51.022;3.664;2023-02-28T11:17:31;3.65;;;2.30;;
56043;SDS011;41912;51.022;3.664;2023-02-28T11:20:06;6.40;;;2.65;;
56043;SDS011;41912;51.022;3.664;2023-02-28T11:22:43;3.67;;;2.30;;
56043;SDS011;41912;51.022;3.664;2023-02-28T11:25:21;8.93;;;2.28;;
56043;SDS011;41912;51.022;3.664;2023-02-28T11:28:00;5.97;;;2.45;;
56043;SDS011;41912;51.022;3.664;2023-02-28T11:30:31;4.85;;;2.40;;
56043;SDS011;41912;51.022;3.664;2023-02-28T11:35:54;6.88;;;2.50;;
56043;SDS011;41912;51.022;3.664;2023-02-28T11:38:24;6.00;;;2.45;;
56043;SDS011;41912;51.022;3.664;2023-02-28T11:51:34;7.10;;;3.00;;
56043;SDS011;41912;51.022;3.664;2023-02-28T12:05:49;3.50;;;2.33;;
56043;SDS011;41912;51.022;3.664;2023-02-28T12:11:54;5.18;;;2.33;;
56043;SDS011;41912;51.022;3.664;2023-02-28T12:22:27;5.90;;;2.03;;
56043;SDS011;41912;51.022;3.664;2023-02-28T12:27:39;5.07;;;2.00;;
56043;SDS011;41912;51.022;3.664;2023-02-28T12:32:46;7.55;;;1.95;;
56043;SDS011;41912;51.022;3.664;2023-02-28T12:35:18;3.78;;;2.10;;
56043;SDS011;41912;51.022;3.664;2023-02-28T12:40:19;5.72;;;1.80;;
56043;SDS011;41912;51.022;3.664;2023-02-28T12:42:57;3.95;;;1.70;;
56043;SDS011;41912;51.022;3.664;2023-02-28T12:45:31;6.30;;;2.40;;
56043;SDS011;41912;51.022;3.664;2023-02-28T12:48:01;4.93;;;1.80;;
56043;SDS011;41912;51.022;3.664;2023-02-28T12:50:30;2.83;;;1.85;;
56043;SDS011;41912;51.022;3.664;2023-02-28T12:53:00;2.53;;;1.77;;
56043;SDS011;41912;51.022;3.664;2023-02-28T12:58:39;2.47;;;1.65;;
56043;SDS011;41912;51.022;3.664;2023-02-28T13:04:08;5.10;;;1.73;;
56043;SDS011;41912;51.022;3.664;2023-02-28T13:09:41;3.75;;;1.65;;
56043;SDS011;41912;51.022;3.664;2023-02-28T13:12:16;3.72;;;1.90;;
56043;SDS011;41912;51.022;3.664;2023-02-28T13:14:42;2.65;;;1.30;;
56043;SDS011;41912;51.022;3.664;2023-02-28T13:19:37;2.75;;;1.85;;
56043;SDS011;41912;51.022;3.664;2023-02-28T13:22:43;3.95;;;2.30;;
56043;SDS011;41912;51.022;3.664;2023-02-28T13:25:53;4.18;;;1.77;;
56043;SDS011;41912;51.022;3.664;2023-02-28T13:28:03;3.07;;;1.80;;
56043;SDS011;41912;51.022;3.664;2023-02-28T13:33:26;3.05;;;1.75;;
56043;SDS011;41912;51.022;3.664;2023-02-28T13:36:27;5.10;;;2.08;;
56043;SDS011;41912;51.022;3.664;2023-02-28T13:46:30;3.70;;;2.00;;
56043;SDS011;41912;51.022;3.664;2023-02-28T14:05:42;3.30;;;1.98;;
56043;SDS011;41912;51.022;3.664;2023-02-28T14:08:18;3.83;;;1.70;;
56043;SDS011;41912;51.022;3.664;2023-02-28T14:10:48;2.97;;;1.73;;
56043;SDS011;41912;51.022;3.664;2023-02-28T14:16:04;4.75;;;1.95;;
56043;SDS011;41912;51.022;3.664;2023-02-28T14:18:32;4.90;;;1.70;;
56043;SDS011;41912;51.022;3.664;2023-02-28T14:21:11;3.17;;;2.15;;
56043;SDS011;41912;51.022;3.664;2023-02-28T14:33:34;7.97;;;2.58;;
56043;SDS011;41912;51.022;3.664;2023-02-28T14:35:40;7.20;;;2.22;;
56043;SDS011;41912;51.022;3.664;2023-02-28T14:38:34;5.65;;;1.98;;
56043;SDS011;41912;51.022;3.664;2023-02-28T14:41:12;4.53;;;2.15;;
56043;SDS011;41912;51.022;3.664;2023-02-28T14:43:55;2.88;;;1.95;;
56043;SDS011;41912;51.022;3.664;2023-02-28T14:46:24;2.88;;;1.90;;
56043;SDS011;41912;51.022;3.664;2023-02-28T14:48:59;5.07;;;2.42;;
56043;SDS011;41912;51.022;3.664;2023-02-28T14:51:25;2.63;;;1.90;;
56043;SDS011;41912;51.022;3.664;2023-02-28T14:53:55;4.00;;;2.33;;
56043;SDS011;41912;51.022;3.664;2023-02-28T14:56:24;7.30;;;2.10;;
56043;SDS011;41912;51.022;3.664;2023-02-28T14:58:55;7.07;;;2.30;;
56043;SDS011;41912;51.022;3.664;2023-02-28T15:01:22;4.35;;;2.30;;
56043;SDS011;41912;51.022;3.664;2023-02-28T15:04:00;3.90;;;2.17;;
56043;SDS011;41912;51.022;3.664;2023-02-28T15:06:29;3.17;;;2.50;;
56043;SDS011;41912;51.022;3.664;2023-02-28T15:09:08;5.60;;;2.30;;
56043;SDS011;41912;51.022;3.664;2023-02-28T15:11:36;8.77;;;2.80;;
56043;SDS011;41912;51.022;3.664;2023-02-28T15:14:03;4.88;;;2.83;;
56043;SDS011;41912;51.022;3.664;2023-02-28T15:19:14;4.72;;;2.50;;
56043;SDS011;41912;51.022;3.664;2023-02-28T15:22:24;6.35;;;2.88;;
56043;SDS011;41912;51.022;3.664;2023-02-28T15:24:46;3.90;;;2.50;;
56043;SDS011;41912;51.022;3.664;2023-02-28T15:27:31;9.15;;;2.60;;
56043;SDS011;41912;51.022;3.664;2023-02-28T15:29:59;3.90;;;2.20;;
56043;SDS011;41912;51.022;3.664;2023-02-28T15:32:31;4.93;;;2.60;;
56043;SDS011;41912;51.022;3.664;2023-02-28T15:34:59;4.72;;;2.80;;
56043;SDS011;41912;51.022;3.664;2023-02-28T15:45:47;5.00;;;2.58;;
56043;SDS011;41912;51.022;3.664;2023-02-28T15:50:47;8.25;;;4.28;;
56043;SDS011;41912;51.022;3.664;2023-02-28T15:53:23;7.07;;;3.03;;
56043;SDS011;41912;51.022;3.664;2023-02-28T15:56:32;8.73;;;2.72;;
56043;SDS011;41912;51.022;3.664;2023-02-28T15:59:03;3.85;;;2.67;;
56043;SDS011;41912;51.022;3.664;2023-02-28T16:01:33;4.28;;;2.90;;
56043;SDS011;41912;51.022;3.664;2023-02-28T16:04:01;5.57;;;2.83;;
56043;SDS011;41912;51.022;3.664;2023-02-28T16:06:32;4.55;;;2.83;;
56043;SDS011;41912;51.022;3.664;2023-02-28T16:09:10;4.88;;;2.83;;
56043;SDS011;41912;51.022;3.664;2023-02-28T16:14:18;6.20;;;3.30;;
56043;SDS011;41912;51.022;3.664;2023-02-28T16:16:50;11.48;;;3.78;;
56043;SDS011;41912;51.022;3.664;2023-02-28T16:19:18;4.75;;;2.80;;
56043;SDS011;41912;51.022;3.664;2023-02-28T16:21:44;10.73;;;2.90;;
56043;SDS011;41912;51.022;3.664;2023-02-28T16:24:10;6.78;;;4.13;;
56043;SDS011;41912;51.022;3.664;2023-02-28T16:26:36;5.75;;;2.88;;
56043;SDS011;41912;51.022;3.664;2023-02-28T16:29:04;6.68;;;2.50;;
56043;SDS011;41912;51.022;3.664;2023-02-28T16:31:33;4.32;;;2.60;;
56043;SDS011;41912;51.022;3.664;2023-02-28T16:34:02;5.75;;;2.83;;
56043;SDS011;41912;51.022;3.664;2023-02-28T16:36:29;5.18;;;3.03;;
56043;SDS011;41912;51.022;3.664;2023-02-28T16:38:55;7.30;;;3.08;;
56043;SDS011;41912;51.022;3.664;2023-02-28T16:41:22;5.78;;;3.13;;
56043;SDS011;41912;51.022;3.664;2023-02-28T16:43:51;7.60;;;3.28;;
56043;SDS011;41912;51.022;3.664;2023-02-28T16:46:19;4.47;;;2.90;;
56043;SDS011;41912;51.022;3.664;2023-02-28T16:48:46;7.97;;;3.17;;
56043;SDS011;41912;51.022;3.664;2023-02-28T16:51:16;6.20;;;3.20;;
56043;SDS011;41912;51.022;3.664;2023-02-28T16:53:43;7.30;;;3.08;;
56043;SDS011;41912;51.022;3.664;2023-02-28T16:56:20;4.18;;;3.05;;
56043;SDS011;41912;51.022;3.664;2023-02-28T16:58:47;4.82;;;2.90;;
56043;SDS011;41912;51.022;3.664;2023-02-28T17:01:14;6.65;;;3.00;;
56043;SDS011;41912;51.022;3.664;2023-02-28T17:03:40;6.75;;;2.80;;
56043;SDS011;41912;51.022;3.664;2023-02-28T17:06:20;5.65;;;2.80;;
56043;SDS011;41912;51.022;3.664;2023-02-28T17:08:51;3.53;;;2.83;;
56043;SDS011;41912;51.022;3.664;2023-02-28T17:11:17;5.10;;;3.00;;
56043;SDS011;41912;51.022;3.664;2023-02-28T17:13:43;6.47;;;2.83;;
56043;SDS011;41912;51.022;3.664;2023-02-28T17:16:43;9.77;;;5.30;;
56043;SDS011;41912;51.022;3.664;2023-02-28T17:19:06;11.55;;;4.82;;
56043;SDS011;41912;51.022;3.664;2023-02-28T17:21:36;8.15;;;3.78;;
56043;SDS011;41912;51.022;3.664;2023-02-28T17:24:02;4.90;;;3.03;;
56043;SDS011;41912;51.022;3.664;2023-02-28T17:26:28;5.50;;;3.25;;
56043;SDS011;41912;51.022;3.664;2023-02-28T17:28:54;6.40;;;2.95;;
56043;SDS011;41912;51.022;3.664;2023-02-28T17:31:21;10.65;;;3.70;;
56043;SDS011;41912;51.022;3.664;2023-02-28T17:33:50;7.57;;;4.35;;
56043;SDS011;41912;51.022;3.664;2023-02-28T17:36:21;7.82;;;4.30;;
56043;SDS011;41912;51.022;3.664;2023-02-28T17:38:51;7.30;;;3.72;;
56043;SDS011;41912;51.022;3.664;2023-02-28T17:41:18;10.18;;;3.92;;
56043;SDS011;41912;51.022;3.664;2023-02-28T17:43:44;10.25;;;4.28;;
56043;SDS011;41912;51.022;3.664;2023-02-28T17:46:17;9.25;;;5.47;;
56043;SDS011;41912;51.022;3.664;2023-02-28T17:48:47;7.22;;;4.95;;
56043;SDS011;41912;51.022;3.664;2023-02-28T17:51:14;10.73;;;4.40;;
56043;SDS011;41912;51.022;3.664;2023-02-28T17:53:40;11.50;;;3.75;;
56043;SDS011;41912;51.022;3.664;2023-02-28T17:56:17;9.18;;;4.05;;
56043;SDS011;41912;51.022;3.664;2023-02-28T17:58:45;9.13;;;3.47;;
56043;SDS011;41912;51.022;3.664;2023-02-28T18:01:11;10.02;;;3.53;;
56043;SDS011;41912;51.022;3.664;2023-02-28T18:03:37;6.18;;;3.35;;
56043;SDS011;41912;51.022;3.664;2023-02-28T18:06:03;6.63;;;3.30;;